sensor_id;sensor_type;location;lat;lon;timestamp;P1;durP1;ratioP1;P2;durP2;ratioP2
57071;SDS011;42956;51.366;11.298;2022-07-29T00:01:41;8.80;;;1.50;;
57071;SDS011;42956;51.366;11.298;2022-07-29T00:04:08;6.32;;;1.58;;
57071;SDS011;42956;51.366;11.298;2022-07-29T00:06:36;4.30;;;1.67;;
57071;SDS011;42956;51.366;11.298;2022-07-29T00:09:04;4.00;;;1.35;;
57071;SDS011;42956;51.366;11.298;2022-07-29T00:11:34;9.50;;;1.48;;
57071;SDS011;42956;51.366;11.298;2022-07-29T00:14:01;9.23;;;1.60;;
57071;SDS011;42956;51.366;11.298;2022-07-29T00:16:29;6.15;;;1.45;;
57071;SDS011;42956;51.366;11.298;2022-07-29T00:18:57;3.42;;;1.33;;
57071;SDS011;42956;51.366;11.298;2022-07-29T00:21:28;6.35;;;1.50;;
57071;SDS011;42956;51.366;11.298;2022-07-29T00:23:55;6.13;;;1.67;;
57071;SDS011;42956;51.366;11.298;2022-07-29T00:26:23;6.72;;;1.35;;
57071;SDS011;42956;51.366;11.298;2022-07-29T00:28:55;5.43;;;2.42;;
57071;SDS011;42956;51.366;11.298;2022-07-29T00:31:43;6.90;;;1.55;;
57071;SDS011;42956;51.366;11.298;2022-07-29T00:34:11;3.78;;;1.45;;
57071;SDS011;42956;51.366;11.298;2022-07-29T00:36:53;9.10;;;1.42;;
57071;SDS011;42956;51.366;11.298;2022-07-29T00:39:20;4.63;;;1.50;;
57071;SDS011;42956;51.366;11.298;2022-07-29T00:41:48;3.80;;;1.40;;
57071;SDS011;42956;51.366;11.298;2022-07-29T00:44:17;7.25;;;1.42;;
57071;SDS011;42956;51.366;11.298;2022-07-29T00:46:45;4.50;;;1.30;;
57071;SDS011;42956;51.366;11.298;2022-07-29T00:49:13;4.88;;;1.30;;
57071;SDS011;42956;51.366;11.298;2022-07-29T00:51:42;7.30;;;1.83;;
57071;SDS011;42956;51.366;11.298;2022-07-29T00:54:10;3.65;;;1.17;;
57071;SDS011;42956;51.366;11.298;2022-07-29T00:56:38;3.10;;;1.25;;
57071;SDS011;42956;51.366;11.298;2022-07-29T00:59:06;2.05;;;1.10;;
57071;SDS011;42956;51.366;11.298;2022-07-29T01:01:35;4.70;;;1.40;;
57071;SDS011;42956;51.366;11.298;2022-07-29T01:04:03;7.45;;;1.65;;
57071;SDS011;42956;51.366;11.298;2022-07-29T01:06:33;4.25;;;1.50;;
57071;SDS011;42956;51.366;11.298;2022-07-29T01:09:02;8.63;;;2.00;;
57071;SDS011;42956;51.366;11.298;2022-07-29T01:11:30;2.78;;;1.55;;
57071;SDS011;42956;51.366;11.298;2022-07-29T01:13:58;5.82;;;1.48;;
57071;SDS011;42956;51.366;11.298;2022-07-29T01:16:28;3.28;;;1.30;;
57071;SDS011;42956;51.366;11.298;2022-07-29T01:19:00;2.17;;;1.40;;
57071;SDS011;42956;51.366;11.298;2022-07-29T01:21:44;3.63;;;1.60;;
57071;SDS011;42956;51.366;11.298;2022-07-29T01:24:20;4.07;;;1.33;;
57071;SDS011;42956;51.366;11.298;2022-07-29T01:26:56;6.75;;;1.40;;
57071;SDS011;42956;51.366;11.298;2022-07-29T01:29:26;4.60;;;1.50;;
57071;SDS011;42956;51.366;11.298;2022-07-29T01:32:07;3.65;;;1.35;;
57071;SDS011;42956;51.366;11.298;2022-07-29T01:34:54;4.25;;;1.83;;
57071;SDS011;42956;51.366;11.298;2022-07-29T01:37:25;5.95;;;1.48;;
57071;SDS011;42956;51.366;11.298;2022-07-29T01:39:55;6.95;;;1.20;;
57071;SDS011;42956;51.366;11.298;2022-07-29T01:42:26;7.30;;;1.92;;
57071;SDS011;42956;51.366;11.298;2022-07-29T01:44:57;7.38;;;1.52;;
57071;SDS011;42956;51.366;11.298;2022-07-29T01:47:29;4.88;;;2.08;;
57071;SDS011;42956;51.366;11.298;2022-07-29T01:50:01;5.93;;;1.77;;
57071;SDS011;42956;51.366;11.298;2022-07-29T01:52:33;6.05;;;2.00;;
57071;SDS011;42956;51.366;11.298;2022-07-29T01:55:04;3.58;;;1.50;;
57071;SDS011;42956;51.366;11.298;2022-07-29T01:57:34;8.18;;;1.83;;
57071;SDS011;42956;51.366;11.298;2022-07-29T02:00:05;6.75;;;2.28;;
57071;SDS011;42956;51.366;11.298;2022-07-29T02:02:33;3.38;;;1.80;;
57071;SDS011;42956;51.366;11.298;2022-07-29T02:05:02;4.47;;;1.60;;
57071;SDS011;42956;51.366;11.298;2022-07-29T02:07:31;4.32;;;1.42;;
57071;SDS011;42956;51.366;11.298;2022-07-29T02:10:01;5.05;;;1.58;;
57071;SDS011;42956;51.366;11.298;2022-07-29T02:12:29;5.28;;;1.77;;
57071;SDS011;42956;51.366;11.298;2022-07-29T02:14:59;4.55;;;1.73;;
57071;SDS011;42956;51.366;11.298;2022-07-29T02:17:31;5.32;;;1.58;;
57071;SDS011;42956;51.366;11.298;2022-07-29T02:20:04;4.68;;;2.00;;
57071;SDS011;42956;51.366;11.298;2022-07-29T02:22:33;8.93;;;1.80;;
57071;SDS011;42956;51.366;11.298;2022-07-29T02:25:01;6.97;;;2.15;;
57071;SDS011;42956;51.366;11.298;2022-07-29T02:27:29;7.00;;;1.52;;
57071;SDS011;42956;51.366;11.298;2022-07-29T02:29:57;3.42;;;1.80;;
57071;SDS011;42956;51.366;11.298;2022-07-29T02:32:26;7.22;;;1.70;;
57071;SDS011;42956;51.366;11.298;2022-07-29T02:34:57;4.15;;;2.22;;
57071;SDS011;42956;51.366;11.298;2022-07-29T02:37:25;5.15;;;1.45;;
57071;SDS011;42956;51.366;11.298;2022-07-29T02:39:54;6.97;;;1.70;;
57071;SDS011;42956;51.366;11.298;2022-07-29T02:42:23;6.95;;;2.13;;
57071;SDS011;42956;51.366;11.298;2022-07-29T02:44:51;4.00;;;1.85;;
57071;SDS011;42956;51.366;11.298;2022-07-29T02:47:20;2.10;;;1.77;;
57071;SDS011;42956;51.366;11.298;2022-07-29T02:49:52;5.60;;;1.40;;
57071;SDS011;42956;51.366;11.298;2022-07-29T02:52:24;7.55;;;2.05;;
57071;SDS011;42956;51.366;11.298;2022-07-29T02:54:54;6.75;;;1.60;;
57071;SDS011;42956;51.366;11.298;2022-07-29T02:57:25;13.23;;;1.90;;
57071;SDS011;42956;51.366;11.298;2022-07-29T03:02:23;5.75;;;1.52;;
57071;SDS011;42956;51.366;11.298;2022-07-29T03:04:53;4.90;;;1.40;;
57071;SDS011;42956;51.366;11.298;2022-07-29T03:07:25;5.43;;;1.90;;
57071;SDS011;42956;51.366;11.298;2022-07-29T03:09:53;3.95;;;1.85;;
57071;SDS011;42956;51.366;11.298;2022-07-29T03:12:21;2.78;;;1.58;;
57071;SDS011;42956;51.366;11.298;2022-07-29T03:14:49;4.03;;;1.40;;
57071;SDS011;42956;51.366;11.298;2022-07-29T03:17:17;5.15;;;1.65;;
57071;SDS011;42956;51.366;11.298;2022-07-29T03:19:45;5.60;;;1.88;;
57071;SDS011;42956;51.366;11.298;2022-07-29T03:22:14;3.22;;;1.70;;
57071;SDS011;42956;51.366;11.298;2022-07-29T03:24:46;2.65;;;1.38;;
57071;SDS011;42956;51.366;11.298;2022-07-29T03:27:13;3.97;;;1.73;;
57071;SDS011;42956;51.366;11.298;2022-07-29T03:29:41;8.95;;;1.50;;
57071;SDS011;42956;51.366;11.298;2022-07-29T03:32:16;2.38;;;1.42;;
57071;SDS011;42956;51.366;11.298;2022-07-29T03:34:49;3.33;;;1.50;;
57071;SDS011;42956;51.366;11.298;2022-07-29T03:37:17;5.25;;;2.08;;
57071;SDS011;42956;51.366;11.298;2022-07-29T03:39:46;4.53;;;1.50;;
57071;SDS011;42956;51.366;11.298;2022-07-29T03:42:15;3.92;;;1.65;;
57071;SDS011;42956;51.366;11.298;2022-07-29T03:44:44;4.45;;;1.70;;
57071;SDS011;42956;51.366;11.298;2022-07-29T03:47:13;6.75;;;1.95;;
57071;SDS011;42956;51.366;11.298;2022-07-29T03:49:42;3.80;;;1.55;;
57071;SDS011;42956;51.366;11.298;2022-07-29T03:52:12;4.18;;;2.22;;
57071;SDS011;42956;51.366;11.298;2022-07-29T03:54:40;5.22;;;2.03;;
57071;SDS011;42956;51.366;11.298;2022-07-29T03:57:09;4.97;;;1.63;;
57071;SDS011;42956;51.366;11.298;2022-07-29T03:59:38;3.78;;;1.63;;
57071;SDS011;42956;51.366;11.298;2022-07-29T04:02:08;5.25;;;1.88;;
57071;SDS011;42956;51.366;11.298;2022-07-29T04:04:37;5.55;;;1.60;;
57071;SDS011;42956;51.366;11.298;2022-07-29T04:07:04;4.18;;;1.73;;
57071;SDS011;42956;51.366;11.298;2022-07-29T04:09:32;4.80;;;1.85;;
57071;SDS011;42956;51.366;11.298;2022-07-29T04:12:00;4.13;;;1.45;;
57071;SDS011;42956;51.366;11.298;2022-07-29T04:14:32;3.40;;;1.77;;
57071;SDS011;42956;51.366;11.298;2022-07-29T04:17:00;5.47;;;1.67;;
57071;SDS011;42956;51.366;11.298;2022-07-29T04:19:28;6.72;;;2.10;;
57071;SDS011;42956;51.366;11.298;2022-07-29T04:21:56;10.40;;;3.05;;
57071;SDS011;42956;51.366;11.298;2022-07-29T04:24:24;5.95;;;2.08;;
57071;SDS011;42956;51.366;11.298;2022-07-29T04:26:52;10.20;;;3.00;;
57071;SDS011;42956;51.366;11.298;2022-07-29T04:29:20;6.38;;;1.73;;
57071;SDS011;42956;51.366;11.298;2022-07-29T04:31:50;10.02;;;1.90;;
57071;SDS011;42956;51.366;11.298;2022-07-29T04:34:18;6.00;;;1.70;;
57071;SDS011;42956;51.366;11.298;2022-07-29T04:36:46;4.55;;;1.85;;
57071;SDS011;42956;51.366;11.298;2022-07-29T04:39:17;3.65;;;2.47;;
57071;SDS011;42956;51.366;11.298;2022-07-29T04:41:49;6.57;;;1.90;;
57071;SDS011;42956;51.366;11.298;2022-07-29T04:44:20;7.05;;;2.08;;
57071;SDS011;42956;51.366;11.298;2022-07-29T04:46:56;5.25;;;2.10;;
57071;SDS011;42956;51.366;11.298;2022-07-29T04:49:24;3.50;;;1.75;;
57071;SDS011;42956;51.366;11.298;2022-07-29T04:51:52;3.47;;;1.80;;
57071;SDS011;42956;51.366;11.298;2022-07-29T04:54:20;6.18;;;2.10;;
57071;SDS011;42956;51.366;11.298;2022-07-29T04:56:48;5.50;;;1.95;;
57071;SDS011;42956;51.366;11.298;2022-07-29T04:59:16;5.20;;;2.03;;
57071;SDS011;42956;51.366;11.298;2022-07-29T05:01:43;3.50;;;1.80;;
57071;SDS011;42956;51.366;11.298;2022-07-29T05:04:13;5.10;;;1.77;;
57071;SDS011;42956;51.366;11.298;2022-07-29T05:06:41;7.78;;;2.03;;
57071;SDS011;42956;51.366;11.298;2022-07-29T05:09:11;5.20;;;1.83;;
57071;SDS011;42956;51.366;11.298;2022-07-29T05:11:39;5.25;;;2.25;;
57071;SDS011;42956;51.366;11.298;2022-07-29T05:14:07;3.63;;;1.98;;
57071;SDS011;42956;51.366;11.298;2022-07-29T05:16:35;5.57;;;1.55;;
57071;SDS011;42956;51.366;11.298;2022-07-29T05:19:03;5.15;;;1.77;;
57071;SDS011;42956;51.366;11.298;2022-07-29T05:21:39;6.60;;;1.85;;
57071;SDS011;42956;51.366;11.298;2022-07-29T05:24:07;6.32;;;1.70;;
57071;SDS011;42956;51.366;11.298;2022-07-29T05:26:35;4.45;;;1.70;;
57071;SDS011;42956;51.366;11.298;2022-07-29T05:29:05;3.70;;;1.70;;
57071;SDS011;42956;51.366;11.298;2022-07-29T05:31:53;11.82;;;1.90;;
57071;SDS011;42956;51.366;11.298;2022-07-29T05:34:21;5.93;;;2.15;;
57071;SDS011;42956;51.366;11.298;2022-07-29T05:36:50;5.95;;;2.22;;
57071;SDS011;42956;51.366;11.298;2022-07-29T05:39:21;10.73;;;2.40;;
57071;SDS011;42956;51.366;11.298;2022-07-29T05:42:09;9.77;;;2.10;;
57071;SDS011;42956;51.366;11.298;2022-07-29T05:44:37;8.77;;;2.33;;
57071;SDS011;42956;51.366;11.298;2022-07-29T05:47:05;3.78;;;1.70;;
57071;SDS011;42956;51.366;11.298;2022-07-29T05:49:33;4.20;;;1.42;;
57071;SDS011;42956;51.366;11.298;2022-07-29T05:52:03;7.90;;;2.20;;
57071;SDS011;42956;51.366;11.298;2022-07-29T05:54:31;7.95;;;1.95;;
57071;SDS011;42956;51.366;11.298;2022-07-29T05:57:02;4.05;;;2.13;;
57071;SDS011;42956;51.366;11.298;2022-07-29T05:59:36;5.75;;;2.17;;
57071;SDS011;42956;51.366;11.298;2022-07-29T06:02:04;7.32;;;2.10;;
57071;SDS011;42956;51.366;11.298;2022-07-29T06:04:32;11.52;;;3.35;;
57071;SDS011;42956;51.366;11.298;2022-07-29T06:07:00;8.30;;;1.83;;
57071;SDS011;42956;51.366;11.298;2022-07-29T06:09:29;5.38;;;1.77;;
57071;SDS011;42956;51.366;11.298;2022-07-29T06:11:57;4.40;;;2.00;;
57071;SDS011;42956;51.366;11.298;2022-07-29T06:14:25;4.25;;;1.70;;
57071;SDS011;42956;51.366;11.298;2022-07-29T06:16:54;6.20;;;1.92;;
57071;SDS011;42956;51.366;11.298;2022-07-29T06:19:22;7.20;;;1.55;;
57071;SDS011;42956;51.366;11.298;2022-07-29T06:21:53;5.40;;;1.80;;
57071;SDS011;42956;51.366;11.298;2022-07-29T06:24:21;4.43;;;2.08;;
57071;SDS011;42956;51.366;11.298;2022-07-29T06:26:50;8.10;;;2.42;;
57071;SDS011;42956;51.366;11.298;2022-07-29T06:29:18;5.10;;;2.00;;
57071;SDS011;42956;51.366;11.298;2022-07-29T06:31:46;8.43;;;2.03;;
57071;SDS011;42956;51.366;11.298;2022-07-29T06:34:14;7.47;;;1.92;;
57071;SDS011;42956;51.366;11.298;2022-07-29T06:36:43;6.57;;;2.20;;
57071;SDS011;42956;51.366;11.298;2022-07-29T06:39:11;6.82;;;2.17;;
57071;SDS011;42956;51.366;11.298;2022-07-29T06:41:39;10.35;;;2.22;;
57071;SDS011;42956;51.366;11.298;2022-07-29T06:44:11;2.15;;;1.30;;
57071;SDS011;42956;51.366;11.298;2022-07-29T06:46:40;2.70;;;1.65;;
57071;SDS011;42956;51.366;11.298;2022-07-29T06:49:08;7.55;;;1.63;;
57071;SDS011;42956;51.366;11.298;2022-07-29T06:51:36;3.17;;;1.67;;
57071;SDS011;42956;51.366;11.298;2022-07-29T06:54:04;3.97;;;1.88;;
57071;SDS011;42956;51.366;11.298;2022-07-29T06:56:33;5.43;;;1.88;;
57071;SDS011;42956;51.366;11.298;2022-07-29T07:01:35;5.18;;;1.63;;
57071;SDS011;42956;51.366;11.298;2022-07-29T07:04:03;7.28;;;1.90;;
57071;SDS011;42956;51.366;11.298;2022-07-29T07:06:31;8.07;;;1.80;;
57071;SDS011;42956;51.366;11.298;2022-07-29T07:08:59;7.43;;;2.35;;
57071;SDS011;42956;51.366;11.298;2022-07-29T07:11:26;5.15;;;1.90;;
57071;SDS011;42956;51.366;11.298;2022-07-29T07:13:54;4.78;;;2.13;;
57071;SDS011;42956;51.366;11.298;2022-07-29T07:16:28;7.30;;;2.00;;
57071;SDS011;42956;51.366;11.298;2022-07-29T07:18:57;9.75;;;2.17;;
57071;SDS011;42956;51.366;11.298;2022-07-29T07:21:25;5.78;;;1.70;;
57071;SDS011;42956;51.366;11.298;2022-07-29T07:23:56;6.78;;;1.75;;
57071;SDS011;42956;51.366;11.298;2022-07-29T07:26:24;6.20;;;1.92;;
57071;SDS011;42956;51.366;11.298;2022-07-29T07:28:52;4.50;;;1.80;;
57071;SDS011;42956;51.366;11.298;2022-07-29T07:31:20;7.88;;;1.92;;
57071;SDS011;42956;51.366;11.298;2022-07-29T07:33:48;11.00;;;2.03;;
57071;SDS011;42956;51.366;11.298;2022-07-29T07:36:17;5.88;;;2.20;;
57071;SDS011;42956;51.366;11.298;2022-07-29T07:38:47;8.90;;;2.20;;
57071;SDS011;42956;51.366;11.298;2022-07-29T07:41:15;4.72;;;1.90;;
57071;SDS011;42956;51.366;11.298;2022-07-29T07:43:43;10.82;;;2.25;;
57071;SDS011;42956;51.366;11.298;2022-07-29T07:46:12;4.93;;;1.95;;
57071;SDS011;42956;51.366;11.298;2022-07-29T07:48:40;6.65;;;2.22;;
57071;SDS011;42956;51.366;11.298;2022-07-29T07:51:08;5.57;;;2.60;;
57071;SDS011;42956;51.366;11.298;2022-07-29T07:53:37;9.40;;;3.30;;
57071;SDS011;42956;51.366;11.298;2022-07-29T07:56:05;10.57;;;2.33;;
57071;SDS011;42956;51.366;11.298;2022-07-29T07:58:37;4.15;;;2.10;;
57071;SDS011;42956;51.366;11.298;2022-07-29T08:01:05;8.63;;;2.70;;
57071;SDS011;42956;51.366;11.298;2022-07-29T08:03:33;5.32;;;2.08;;
57071;SDS011;42956;51.366;11.298;2022-07-29T08:06:01;7.88;;;2.70;;
57071;SDS011;42956;51.366;11.298;2022-07-29T08:08:28;7.30;;;2.65;;
57071;SDS011;42956;51.366;11.298;2022-07-29T08:10:58;12.20;;;2.78;;
57071;SDS011;42956;51.366;11.298;2022-07-29T08:13:35;10.65;;;2.63;;
57071;SDS011;42956;51.366;11.298;2022-07-29T08:16:03;5.90;;;2.90;;
57071;SDS011;42956;51.366;11.298;2022-07-29T08:18:39;5.90;;;2.58;;
57071;SDS011;42956;51.366;11.298;2022-07-29T08:21:07;7.25;;;3.22;;
57071;SDS011;42956;51.366;11.298;2022-07-29T08:23:35;4.68;;;2.80;;
57071;SDS011;42956;51.366;11.298;2022-07-29T08:26:21;9.88;;;3.08;;
57071;SDS011;42956;51.366;11.298;2022-07-29T08:28:50;7.68;;;3.08;;
57071;SDS011;42956;51.366;11.298;2022-07-29T08:31:17;4.32;;;2.67;;
57071;SDS011;42956;51.366;11.298;2022-07-29T08:33:45;8.15;;;2.30;;
57071;SDS011;42956;51.366;11.298;2022-07-29T08:36:13;17.50;;;3.22;;
57071;SDS011;42956;51.366;11.298;2022-07-29T08:38:41;11.25;;;2.88;;
57071;SDS011;42956;51.366;11.298;2022-07-29T08:41:09;8.77;;;2.33;;
57071;SDS011;42956;51.366;11.298;2022-07-29T08:43:40;11.25;;;2.92;;
57071;SDS011;42956;51.366;11.298;2022-07-29T08:46:08;5.25;;;2.22;;
57071;SDS011;42956;51.366;11.298;2022-07-29T08:48:36;7.28;;;2.35;;
57071;SDS011;42956;51.366;11.298;2022-07-29T08:51:05;10.02;;;2.58;;
57071;SDS011;42956;51.366;11.298;2022-07-29T08:53:36;9.85;;;2.85;;
57071;SDS011;42956;51.366;11.298;2022-07-29T08:56:04;8.18;;;2.47;;
57071;SDS011;42956;51.366;11.298;2022-07-29T08:58:33;4.60;;;2.33;;
57071;SDS011;42956;51.366;11.298;2022-07-29T09:01:05;11.05;;;2.55;;
57071;SDS011;42956;51.366;11.298;2022-07-29T09:03:39;5.18;;;2.35;;
57071;SDS011;42956;51.366;11.298;2022-07-29T09:06:07;5.93;;;2.67;;
57071;SDS011;42956;51.366;11.298;2022-07-29T09:08:35;11.30;;;2.80;;
57071;SDS011;42956;51.366;11.298;2022-07-29T09:11:03;10.70;;;2.80;;
57071;SDS011;42956;51.366;11.298;2022-07-29T09:13:31;8.00;;;2.72;;
57071;SDS011;42956;51.366;11.298;2022-07-29T09:15:59;7.88;;;2.80;;
57071;SDS011;42956;51.366;11.298;2022-07-29T09:18:36;10.57;;;2.20;;
57071;SDS011;42956;51.366;11.298;2022-07-29T09:21:05;3.70;;;2.20;;
57071;SDS011;42956;51.366;11.298;2022-07-29T09:24:04;14.77;;;3.17;;
57071;SDS011;42956;51.366;11.298;2022-07-29T09:26:34;8.48;;;2.63;;
57071;SDS011;42956;51.366;11.298;2022-07-29T09:29:07;6.75;;;2.95;;
57071;SDS011;42956;51.366;11.298;2022-07-29T09:31:37;11.00;;;3.78;;
57071;SDS011;42956;51.366;11.298;2022-07-29T09:34:07;5.75;;;3.20;;
57071;SDS011;42956;51.366;11.298;2022-07-29T09:36:38;12.23;;;3.33;;
57071;SDS011;42956;51.366;11.298;2022-07-29T09:39:06;7.95;;;3.40;;
57071;SDS011;42956;51.366;11.298;2022-07-29T09:41:43;12.05;;;3.40;;
57071;SDS011;42956;51.366;11.298;2022-07-29T09:44:11;11.60;;;3.50;;
57071;SDS011;42956;51.366;11.298;2022-07-29T09:46:40;8.57;;;3.00;;
57071;SDS011;42956;51.366;11.298;2022-07-29T09:49:11;12.27;;;3.40;;
57071;SDS011;42956;51.366;11.298;2022-07-29T09:51:39;14.07;;;4.18;;
57071;SDS011;42956;51.366;11.298;2022-07-29T09:54:23;13.48;;;3.78;;
57071;SDS011;42956;51.366;11.298;2022-07-29T09:56:52;7.05;;;3.58;;
57071;SDS011;42956;51.366;11.298;2022-07-29T09:59:21;8.40;;;4.10;;
57071;SDS011;42956;51.366;11.298;2022-07-29T10:01:53;4.95;;;2.95;;
57071;SDS011;42956;51.366;11.298;2022-07-29T10:04:23;5.93;;;3.78;;
57071;SDS011;42956;51.366;11.298;2022-07-29T10:06:57;3.25;;;2.28;;
57071;SDS011;42956;51.366;11.298;2022-07-29T10:09:30;5.30;;;3.05;;
57071;SDS011;42956;51.366;11.298;2022-07-29T10:12:02;11.43;;;3.20;;
57071;SDS011;42956;51.366;11.298;2022-07-29T10:14:30;6.70;;;2.83;;
57071;SDS011;42956;51.366;11.298;2022-07-29T10:16:58;9.05;;;3.13;;
57071;SDS011;42956;51.366;11.298;2022-07-29T10:19:28;15.27;;;2.85;;
57071;SDS011;42956;51.366;11.298;2022-07-29T10:21:56;6.70;;;3.17;;
57071;SDS011;42956;51.366;11.298;2022-07-29T10:24:31;8.50;;;3.35;;
57071;SDS011;42956;51.366;11.298;2022-07-29T10:26:59;6.78;;;2.70;;
57071;SDS011;42956;51.366;11.298;2022-07-29T10:29:27;5.18;;;3.10;;
57071;SDS011;42956;51.366;11.298;2022-07-29T10:32:04;8.95;;;3.00;;
57071;SDS011;42956;51.366;11.298;2022-07-29T10:34:43;7.47;;;3.33;;
57071;SDS011;42956;51.366;11.298;2022-07-29T10:37:17;7.05;;;3.95;;
57071;SDS011;42956;51.366;11.298;2022-07-29T10:39:51;13.27;;;3.97;;
57071;SDS011;42956;51.366;11.298;2022-07-29T10:42:23;9.07;;;3.97;;
57071;SDS011;42956;51.366;11.298;2022-07-29T10:45:00;7.43;;;3.85;;
57071;SDS011;42956;51.366;11.298;2022-07-29T10:47:30;10.07;;;3.85;;
57071;SDS011;42956;51.366;11.298;2022-07-29T10:50:03;12.40;;;3.88;;
57071;SDS011;42956;51.366;11.298;2022-07-29T10:55:35;11.60;;;3.88;;
57071;SDS011;42956;51.366;11.298;2022-07-29T10:58:12;5.30;;;3.42;;
57071;SDS011;42956;51.366;11.298;2022-07-29T11:00:40;13.80;;;4.25;;
57071;SDS011;42956;51.366;11.298;2022-07-29T11:05:56;11.40;;;4.10;;
57071;SDS011;42956;51.366;11.298;2022-07-29T11:08:25;8.93;;;4.28;;
57071;SDS011;42956;51.366;11.298;2022-07-29T11:13:51;7.10;;;4.38;;
57071;SDS011;42956;51.366;11.298;2022-07-29T11:16:22;7.68;;;3.85;;
57071;SDS011;42956;51.366;11.298;2022-07-29T11:21:40;11.77;;;4.63;;
57071;SDS011;42956;51.366;11.298;2022-07-29T11:24:21;10.40;;;3.92;;
57071;SDS011;42956;51.366;11.298;2022-07-29T11:27:11;8.88;;;3.90;;
57071;SDS011;42956;51.366;11.298;2022-07-29T11:29:40;7.55;;;4.03;;
57071;SDS011;42956;51.366;11.298;2022-07-29T11:32:09;8.23;;;4.32;;
57071;SDS011;42956;51.366;11.298;2022-07-29T11:34:48;7.47;;;4.32;;
57071;SDS011;42956;51.366;11.298;2022-07-29T11:37:19;9.32;;;4.38;;
57071;SDS011;42956;51.366;11.298;2022-07-29T11:40:10;9.00;;;4.13;;
57071;SDS011;42956;51.366;11.298;2022-07-29T11:42:39;6.45;;;4.03;;
57071;SDS011;42956;51.366;11.298;2022-07-29T11:45:10;15.32;;;4.53;;
57071;SDS011;42956;51.366;11.298;2022-07-29T11:47:59;10.50;;;4.82;;
57071;SDS011;42956;51.366;11.298;2022-07-29T11:50:47;10.52;;;3.80;;
57071;SDS011;42956;51.366;11.298;2022-07-29T11:53:18;7.30;;;3.38;;
57071;SDS011;42956;51.366;11.298;2022-07-29T11:55:46;7.75;;;4.00;;
57071;SDS011;42956;51.366;11.298;2022-07-29T11:58:20;6.43;;;3.55;;
57071;SDS011;42956;51.366;11.298;2022-07-29T12:00:50;9.80;;;3.42;;
57071;SDS011;42956;51.366;11.298;2022-07-29T12:03:23;4.28;;;3.00;;
57071;SDS011;42956;51.366;11.298;2022-07-29T12:06:02;8.13;;;3.47;;
57071;SDS011;42956;51.366;11.298;2022-07-29T12:08:38;12.20;;;3.60;;
57071;SDS011;42956;51.366;11.298;2022-07-29T12:11:14;5.55;;;3.40;;
57071;SDS011;42956;51.366;11.298;2022-07-29T12:13:42;6.32;;;3.90;;
57071;SDS011;42956;51.366;11.298;2022-07-29T12:16:10;11.65;;;3.30;;
57071;SDS011;42956;51.366;11.298;2022-07-29T12:18:41;11.13;;;3.17;;
57071;SDS011;42956;51.366;11.298;2022-07-29T12:21:09;9.85;;;3.03;;
57071;SDS011;42956;51.366;11.298;2022-07-29T12:23:39;6.72;;;2.65;;
57071;SDS011;42956;51.366;11.298;2022-07-29T12:26:20;8.45;;;3.47;;
57071;SDS011;42956;51.366;11.298;2022-07-29T12:28:51;7.72;;;3.80;;
57071;SDS011;42956;51.366;11.298;2022-07-29T12:31:21;6.55;;;3.53;;
57071;SDS011;42956;51.366;11.298;2022-07-29T12:34:09;5.38;;;2.90;;
57071;SDS011;42956;51.366;11.298;2022-07-29T12:36:37;6.30;;;3.00;;
57071;SDS011;42956;51.366;11.298;2022-07-29T12:39:07;6.75;;;2.83;;
57071;SDS011;42956;51.366;11.298;2022-07-29T12:41:35;7.10;;;3.17;;
57071;SDS011;42956;51.366;11.298;2022-07-29T12:44:03;10.18;;;3.65;;
57071;SDS011;42956;51.366;11.298;2022-07-29T12:46:31;9.25;;;3.60;;
57071;SDS011;42956;51.366;11.298;2022-07-29T12:48:59;11.00;;;3.05;;
57071;SDS011;42956;51.366;11.298;2022-07-29T12:51:29;7.70;;;2.60;;
57071;SDS011;42956;51.366;11.298;2022-07-29T12:54:02;13.43;;;3.08;;
57071;SDS011;42956;51.366;11.298;2022-07-29T12:56:31;5.85;;;2.53;;
57071;SDS011;42956;51.366;11.298;2022-07-29T12:59:13;6.35;;;2.85;;
57071;SDS011;42956;51.366;11.298;2022-07-29T13:01:41;10.13;;;3.22;;
57071;SDS011;42956;51.366;11.298;2022-07-29T13:04:09;11.63;;;2.75;;
57071;SDS011;42956;51.366;11.298;2022-07-29T13:06:38;8.13;;;2.83;;
57071;SDS011;42956;51.366;11.298;2022-07-29T13:09:10;8.05;;;2.78;;
57071;SDS011;42956;51.366;11.298;2022-07-29T13:11:41;10.15;;;3.00;;
57071;SDS011;42956;51.366;11.298;2022-07-29T13:14:28;4.75;;;2.35;;
57071;SDS011;42956;51.366;11.298;2022-07-29T13:17:00;6.80;;;3.13;;
57071;SDS011;42956;51.366;11.298;2022-07-29T13:19:32;7.50;;;2.47;;
57071;SDS011;42956;51.366;11.298;2022-07-29T13:22:01;6.30;;;2.50;;
57071;SDS011;42956;51.366;11.298;2022-07-29T13:24:28;9.05;;;2.85;;
57071;SDS011;42956;51.366;11.298;2022-07-29T13:26:58;10.00;;;2.95;;
57071;SDS011;42956;51.366;11.298;2022-07-29T13:29:31;10.25;;;2.72;;
57071;SDS011;42956;51.366;11.298;2022-07-29T13:31:59;8.07;;;3.63;;
57071;SDS011;42956;51.366;11.298;2022-07-29T13:34:27;6.28;;;2.88;;
57071;SDS011;42956;51.366;11.298;2022-07-29T13:36:55;5.55;;;2.83;;
57071;SDS011;42956;51.366;11.298;2022-07-29T13:39:23;7.65;;;3.40;;
57071;SDS011;42956;51.366;11.298;2022-07-29T13:41:50;20.77;;;4.07;;
57071;SDS011;42956;51.366;11.298;2022-07-29T13:44:20;8.38;;;3.45;;
57071;SDS011;42956;51.366;11.298;2022-07-29T13:46:48;6.97;;;3.30;;
57071;SDS011;42956;51.366;11.298;2022-07-29T13:49:16;7.80;;;3.40;;
57071;SDS011;42956;51.366;11.298;2022-07-29T13:51:44;7.15;;;3.13;;
57071;SDS011;42956;51.366;11.298;2022-07-29T13:54:12;9.85;;;3.53;;
57071;SDS011;42956;51.366;11.298;2022-07-29T13:56:40;4.88;;;3.03;;
57071;SDS011;42956;51.366;11.298;2022-07-29T13:59:08;8.40;;;3.10;;
57071;SDS011;42956;51.366;11.298;2022-07-29T14:01:38;6.85;;;3.25;;
57071;SDS011;42956;51.366;11.298;2022-07-29T14:04:08;8.65;;;3.45;;
57071;SDS011;42956;51.366;11.298;2022-07-29T14:06:37;9.13;;;3.70;;
57071;SDS011;42956;51.366;11.298;2022-07-29T14:09:06;4.85;;;2.90;;
57071;SDS011;42956;51.366;11.298;2022-07-29T14:11:35;10.70;;;3.25;;
57071;SDS011;42956;51.366;11.298;2022-07-29T14:14:05;7.38;;;2.78;;
57071;SDS011;42956;51.366;11.298;2022-07-29T14:16:32;13.48;;;3.58;;
57071;SDS011;42956;51.366;11.298;2022-07-29T14:19:08;10.07;;;2.72;;
57071;SDS011;42956;51.366;11.298;2022-07-29T14:21:37;7.30;;;3.05;;
57071;SDS011;42956;51.366;11.298;2022-07-29T14:24:07;14.73;;;3.05;;
57071;SDS011;42956;51.366;11.298;2022-07-29T14:26:47;7.63;;;2.80;;
57071;SDS011;42956;51.366;11.298;2022-07-29T14:29:15;5.40;;;2.88;;
57071;SDS011;42956;51.366;11.298;2022-07-29T14:31:43;7.55;;;2.53;;
57071;SDS011;42956;51.366;11.298;2022-07-29T14:34:12;5.82;;;2.58;;
57071;SDS011;42956;51.366;11.298;2022-07-29T14:36:41;3.50;;;2.53;;
57071;SDS011;42956;51.366;11.298;2022-07-29T14:39:10;4.40;;;2.42;;
57071;SDS011;42956;51.366;11.298;2022-07-29T14:41:37;6.60;;;2.50;;
57071;SDS011;42956;51.366;11.298;2022-07-29T14:44:05;4.78;;;1.90;;
57071;SDS011;42956;51.366;11.298;2022-07-29T14:46:33;3.17;;;2.05;;
57071;SDS011;42956;51.366;11.298;2022-07-29T14:49:01;8.80;;;2.03;;
57071;SDS011;42956;51.366;11.298;2022-07-29T14:51:30;5.28;;;2.28;;
57071;SDS011;42956;51.366;11.298;2022-07-29T14:53:58;3.60;;;2.55;;
57071;SDS011;42956;51.366;11.298;2022-07-29T14:56:26;8.52;;;2.25;;
57071;SDS011;42956;51.366;11.298;2022-07-29T14:59:12;3.22;;;1.55;;
57071;SDS011;42956;51.366;11.298;2022-07-29T15:01:40;7.00;;;2.45;;
57071;SDS011;42956;51.366;11.298;2022-07-29T15:04:08;8.02;;;2.42;;
57071;SDS011;42956;51.366;11.298;2022-07-29T15:06:37;3.15;;;2.17;;
57071;SDS011;42956;51.366;11.298;2022-07-29T15:09:05;4.03;;;1.70;;